createdAt,value
2024-03-01T00:01:36.341Z,5.32
2024-03-01T00:04:04.244Z,5.26
2024-03-01T00:06:31.939Z,5.21
2024-03-01T00:08:59.756Z,5.14
2024-03-01T00:11:27.558Z,5.06
2024-03-01T00:13:55.285Z,5.01
2024-03-01T00:16:23.079Z,4.96
2024-03-01T00:18:50.615Z,4.90
2024-03-01T00:21:18.269Z,4.87
2024-03-01T00:23:46.127Z,4.84
2024-03-01T00:26:13.897Z,4.80
2024-03-01T00:28:41.556Z,4.79
2024-03-01T00:31:09.134Z,4.79
2024-03-01T00:33:36.670Z,4.81
2024-03-01T00:36:04.436Z,4.83
2024-03-01T00:38:32.088Z,4.85
2024-03-01T00:40:59.855Z,4.86
2024-03-01T00:43:27.930Z,4.85
2024-03-01T00:45:55.825Z,4.84
2024-03-01T00:48:23.564Z,4.85
2024-03-01T00:50:51.113Z,4.86
2024-03-01T00:53:18.679Z,4.84
2024-03-01T00:55:46.237Z,4.84
2024-03-01T00:58:14.029Z,4.85
2024-03-01T01:00:41.667Z,4.86
2024-03-01T01:03:09.431Z,4.86
2024-03-01T01:05:37.099Z,4.87
2024-03-01T01:08:04.752Z,4.87
2024-03-01T01:10:32.610Z,4.85
2024-03-01T01:13:00.629Z,4.82
2024-03-01T01:15:28.451Z,4.81
2024-03-01T01:17:56.042Z,4.80
2024-03-01T01:20:23.694Z,4.81
2024-03-01T01:22:51.435Z,4.81
2024-03-01T01:25:19.049Z,4.79
2024-03-01T01:27:47.061Z,4.80
2024-03-01T01:30:14.625Z,4.82
2024-03-01T01:32:42.428Z,4.82
2024-03-01T01:35:10.043Z,4.80
2024-03-01T01:37:37.898Z,4.78
2024-03-01T01:40:05.528Z,4.76
2024-03-01T01:42:33.343Z,4.75
2024-03-01T01:45:00.895Z,4.74
2024-03-01T01:47:28.573Z,4.75
2024-03-01T01:49:56.123Z,4.75
2024-03-01T01:52:23.850Z,4.74
2024-03-01T01:54:51.664Z,4.75
2024-03-01T01:57:19.202Z,4.75
2024-03-01T01:59:46.858Z,4.73
2024-03-01T02:02:14.517Z,4.70
2024-03-01T02:04:42.074Z,4.71
2024-03-01T02:07:09.701Z,4.74
2024-03-01T02:09:37.505Z,4.77
2024-03-01T02:12:05.126Z,4.79
2024-03-01T02:14:32.928Z,4.81
2024-03-01T02:17:00.529Z,4.79
2024-03-01T02:19:28.301Z,4.77
2024-03-01T02:21:56.038Z,4.74
2024-03-01T02:24:23.803Z,4.75
2024-03-01T02:26:51.342Z,4.77
2024-03-01T02:29:19.198Z,4.79
2024-03-01T02:31:46.767Z,4.81
2024-03-01T02:34:14.383Z,4.80
2024-03-01T02:36:42.086Z,4.80
2024-03-01T02:39:09.854Z,4.79
2024-03-01T02:41:37.410Z,4.81
2024-03-01T02:44:04.971Z,4.81
2024-03-01T02:46:32.667Z,4.83
2024-03-01T02:49:00.851Z,4.83
2024-03-01T02:51:28.460Z,4.81
2024-03-01T02:53:56.129Z,4.78
2024-03-01T02:56:23.801Z,4.73
2024-03-01T02:58:51.350Z,4.64
2024-03-01T03:01:18.948Z,4.55
2024-03-01T03:03:46.694Z,4.50
2024-03-01T03:06:14.328Z,4.47
2024-03-01T03:08:42.192Z,4.49
2024-03-01T03:11:09.882Z,4.50
2024-03-01T03:13:37.435Z,4.50
2024-03-01T03:16:05.109Z,4.49
2024-03-01T03:18:32.730Z,4.51
2024-03-01T03:21:00.301Z,4.54
2024-03-01T03:23:27.967Z,4.57
2024-03-01T03:25:55.534Z,4.60
2024-03-01T03:28:23.327Z,4.61
2024-03-01T03:30:51.690Z,4.60
2024-03-01T03:33:19.348Z,4.58
2024-03-01T03:35:46.983Z,4.57
2024-03-01T03:38:14.860Z,4.57
2024-03-01T03:40:42.574Z,4.54
2024-03-01T03:43:10.406Z,4.50
2024-03-01T03:45:38.030Z,4.45
2024-03-01T03:48:06.004Z,4.39
2024-03-01T03:50:34.200Z,4.34
2024-03-01T03:53:01.838Z,4.30
2024-03-01T03:55:29.534Z,4.27
2024-03-01T03:57:56.991Z,4.23
2024-03-01T04:00:24.514Z,4.18
2024-03-01T04:02:52.096Z,4.16
2024-03-01T04:05:19.694Z,4.16
2024-03-01T04:07:47.289Z,4.15
2024-03-01T04:10:14.894Z,4.15
2024-03-01T04:12:42.513Z,4.15
2024-03-01T04:15:10.524Z,4.14
2024-03-01T04:17:38.243Z,4.12
2024-03-01T04:20:05.932Z,4.11
2024-03-01T04:22:33.514Z,4.12
2024-03-01T04:25:01.263Z,4.15
2024-03-01T04:27:28.996Z,4.15
2024-03-01T04:29:56.562Z,4.13
2024-03-01T04:32:24.119Z,4.09
2024-03-01T04:34:51.668Z,4.05
2024-03-01T04:37:19.551Z,4.01
2024-03-01T04:39:47.207Z,4.00
2024-03-01T04:42:14.782Z,3.96
2024-03-01T04:44:42.505Z,3.93
2024-03-01T04:47:10.186Z,3.88
2024-03-01T04:49:37.844Z,3.85
2024-03-01T04:52:05.567Z,3.80
2024-03-01T04:54:33.566Z,3.77
2024-03-01T04:57:01.152Z,3.76
2024-03-01T04:59:28.690Z,3.74
2024-03-01T05:01:56.300Z,3.69
2024-03-01T05:04:23.932Z,3.65
2024-03-01T05:06:51.584Z,3.63
2024-03-01T05:09:19.133Z,3.58
2024-03-01T05:11:46.807Z,3.55
2024-03-01T05:14:14.353Z,3.54
2024-03-01T05:16:42.320Z,3.54
2024-03-01T05:19:09.986Z,3.56
2024-03-01T05:21:37.639Z,3.55
2024-03-01T05:24:05.202Z,3.54
2024-03-01T05:26:32.667Z,3.53
2024-03-01T05:29:00.235Z,3.53
2024-03-01T05:31:32.412Z,3.50
2024-03-01T05:34:01.734Z,3.46
2024-03-01T05:36:29.449Z,3.46
2024-03-01T05:38:57.009Z,3.48
2024-03-01T05:41:24.571Z,3.50
2024-03-01T05:43:52.128Z,3.54
2024-03-01T05:46:19.730Z,3.56
2024-03-01T05:48:47.342Z,3.57
2024-03-01T05:51:14.911Z,3.57
2024-03-01T05:53:42.774Z,3.55
2024-03-01T05:56:10.742Z,3.58
2024-03-01T05:58:38.455Z,3.63
2024-03-01T06:01:06.219Z,3.67
2024-03-01T06:03:34.028Z,3.76
2024-03-01T06:06:01.589Z,3.82
2024-03-01T06:08:29.246Z,3.87
2024-03-01T06:10:56.899Z,3.87
2024-03-01T06:13:24.692Z,3.89
2024-03-01T06:15:52.727Z,3.98
2024-03-01T06:18:20.533Z,4.12
2024-03-01T06:20:48.182Z,4.30
2024-03-01T06:23:15.828Z,4.46
2024-03-01T06:25:43.515Z,4.58
2024-03-01T06:28:11.217Z,4.68
2024-03-01T06:30:40.988Z,4.78
2024-03-01T06:33:09.674Z,4.87
2024-03-01T06:35:37.233Z,4.96
2024-03-01T06:38:04.683Z,5.06
2024-03-01T06:40:32.272Z,5.15
2024-03-01T06:42:59.939Z,5.23
2024-03-01T06:45:27.656Z,5.28
2024-03-01T06:47:55.052Z,5.36
2024-03-01T06:50:22.768Z,5.44
2024-03-01T06:52:50.450Z,5.50
2024-03-01T06:55:18.030Z,5.58
2024-03-01T06:57:45.654Z,5.65
2024-03-01T07:00:13.213Z,5.72
2024-03-01T07:02:41.201Z,5.81
2024-03-01T07:05:08.847Z,5.90
2024-03-01T07:07:36.585Z,5.98
2024-03-01T07:10:04.370Z,6.10
2024-03-01T07:12:32.062Z,6.18
2024-03-01T07:14:59.582Z,6.23
2024-03-01T07:17:27.184Z,6.25
2024-03-01T07:19:54.914Z,6.32
2024-03-01T07:22:22.511Z,6.42
2024-03-01T07:24:50.448Z,6.55
2024-03-01T07:27:17.999Z,6.67
2024-03-01T07:29:45.661Z,6.77
2024-03-01T07:32:13.215Z,6.88
2024-03-01T07:34:40.906Z,6.93
2024-03-01T07:37:08.461Z,6.98
2024-03-01T07:39:35.893Z,7.07
2024-03-01T07:42:03.450Z,7.18
2024-03-01T07:44:31.123Z,7.28
2024-03-01T07:46:59.242Z,7.41
2024-03-01T07:49:27.192Z,7.53
2024-03-01T07:51:54.983Z,7.64
2024-03-01T07:54:22.797Z,7.76
2024-03-01T07:56:50.444Z,7.89
2024-03-01T07:59:18.167Z,7.98
2024-03-01T08:01:45.917Z,8.04
2024-03-01T08:04:13.557Z,8.10
2024-03-01T08:06:41.507Z,8.13
2024-03-01T08:09:09.058Z,8.19
2024-03-01T08:11:36.762Z,8.30
2024-03-01T08:14:04.383Z,8.44
2024-03-01T08:16:32.112Z,8.60
2024-03-01T08:18:59.925Z,8.75
2024-03-01T08:21:27.468Z,8.88
2024-03-01T08:23:55.140Z,8.99
2024-03-01T08:26:22.812Z,9.10
2024-03-01T08:28:50.584Z,9.23
2024-03-01T08:31:18.229Z,9.35
2024-03-01T08:33:45.879Z,9.48
2024-03-01T08:36:13.430Z,9.59
2024-03-01T08:38:41.060Z,9.67
2024-03-01T08:41:08.861Z,9.75
2024-03-01T08:43:36.577Z,9.81
2024-03-01T08:46:04.291Z,9.87
2024-03-01T08:48:31.840Z,9.96
2024-03-01T08:50:59.398Z,10.08
2024-03-01T08:53:26.962Z,10.23
2024-03-01T08:55:54.517Z,10.41
2024-03-01T08:58:22.200Z,10.64
2024-03-01T09:00:49.754Z,10.90
2024-03-01T09:03:17.302Z,11.20
2024-03-01T09:05:44.860Z,11.50
2024-03-01T09:08:12.532Z,11.79
2024-03-01T09:10:40.192Z,12.07
2024-03-01T09:13:08.092Z,12.35
2024-03-01T09:15:35.702Z,12.67
2024-03-01T09:18:03.079Z,12.98
2024-03-01T09:20:30.725Z,13.28
2024-03-01T09:22:58.292Z,13.55
2024-03-01T09:25:25.854Z,13.79
2024-03-01T09:27:53.444Z,14.05
2024-03-01T09:30:21.077Z,14.29
2024-03-01T09:32:49.175Z,14.52
2024-03-01T09:35:16.790Z,14.71
2024-03-01T09:37:44.456Z,14.91
2024-03-01T09:40:12.290Z,15.06
2024-03-01T09:42:39.985Z,15.12
2024-03-01T09:45:07.643Z,15.17
2024-03-01T09:47:35.214Z,15.22
2024-03-01T09:50:02.979Z,15.31
2024-03-01T09:52:30.903Z,15.40
2024-03-01T09:54:58.851Z,15.46
2024-03-01T09:57:26.461Z,15.45
2024-03-01T09:59:54.030Z,15.37
2024-03-01T10:02:21.682Z,15.31
2024-03-01T10:04:49.329Z,15.23
2024-03-01T10:07:17.055Z,15.16
2024-03-01T10:09:44.772Z,15.04
2024-03-01T10:12:12.648Z,14.94
2024-03-01T10:14:40.292Z,14.84
2024-03-01T10:17:09.648Z,14.74
2024-03-01T10:19:38.782Z,14.61
2024-03-01T10:22:06.511Z,14.51
2024-03-01T10:24:34.261Z,14.43
2024-03-01T10:27:01.781Z,14.37
2024-03-01T10:29:29.331Z,14.32
2024-03-01T10:31:56.994Z,14.31
2024-03-01T10:34:24.932Z,14.33
2024-03-01T10:36:52.637Z,14.45
2024-03-01T10:39:20.288Z,14.61
2024-03-01T10:41:48.047Z,14.75
2024-03-01T10:44:15.625Z,14.83
2024-03-01T10:46:43.297Z,14.86
2024-03-01T10:49:10.907Z,14.87
2024-03-01T10:51:38.592Z,14.85
2024-03-01T10:54:06.159Z,14.87
2024-03-01T10:56:33.811Z,14.96
2024-03-01T10:59:01.380Z,15.11
2024-03-01T11:01:29.163Z,15.23
2024-03-01T11:03:57.191Z,15.31
2024-03-01T11:06:24.873Z,15.42
2024-03-01T11:08:52.434Z,15.61
2024-03-01T11:11:20.010Z,15.82
2024-03-01T11:13:48.100Z,16.02
2024-03-01T11:16:15.645Z,16.17
2024-03-01T11:18:43.276Z,16.24
2024-03-01T11:21:10.838Z,16.26
2024-03-01T11:23:38.506Z,16.32
2024-03-01T11:26:06.052Z,16.37
2024-03-01T11:28:33.716Z,16.38
2024-03-01T11:31:01.536Z,16.36
2024-03-01T11:33:29.274Z,16.40
2024-03-01T11:35:57.123Z,16.46
2024-03-01T11:38:24.680Z,16.47
2024-03-01T11:40:52.237Z,16.46
2024-03-01T11:43:19.836Z,16.38
2024-03-01T11:45:47.862Z,16.29
2024-03-01T11:48:15.544Z,16.19
2024-03-01T11:50:43.299Z,16.09
2024-03-01T11:53:13.814Z,16.00
2024-03-01T11:55:41.751Z,15.96
2024-03-01T11:58:09.484Z,15.91
2024-03-01T12:00:37.285Z,15.85
2024-03-01T12:03:04.974Z,15.80
2024-03-01T12:05:32.666Z,15.77
2024-03-01T12:08:02.004Z,15.76
2024-03-01T12:10:30.754Z,15.76
2024-03-01T12:12:58.295Z,15.75
2024-03-01T12:15:25.836Z,15.75
2024-03-01T12:17:53.447Z,15.76
2024-03-01T12:20:21.564Z,15.77
2024-03-01T12:22:49.442Z,15.78
2024-03-01T12:25:17.252Z,15.79
2024-03-01T12:27:45.067Z,15.78
2024-03-01T12:30:12.641Z,15.79
2024-03-01T12:32:40.302Z,15.77
2024-03-01T12:35:07.854Z,15.76
2024-03-01T12:37:35.634Z,15.78
2024-03-01T12:40:03.801Z,15.82
2024-03-01T12:42:31.440Z,15.83
2024-03-01T12:44:59.105Z,15.84
2024-03-01T12:47:26.680Z,15.86
2024-03-01T12:49:54.327Z,15.87
2024-03-01T12:52:22.001Z,15.87
2024-03-01T12:54:49.646Z,15.85
2024-03-01T12:57:17.416Z,15.81
2024-03-01T12:59:45.296Z,15.76
2024-03-01T13:02:13.147Z,15.73
2024-03-01T13:04:40.753Z,15.71
2024-03-01T13:07:08.510Z,15.70
2024-03-01T13:09:36.029Z,15.68
2024-03-01T13:12:03.772Z,15.67
2024-03-01T13:14:31.460Z,15.68
2024-03-01T13:16:59.017Z,15.67
2024-03-01T13:19:26.897Z,15.65
2024-03-01T13:21:54.536Z,15.62
2024-03-01T13:24:22.093Z,15.57
2024-03-01T13:26:49.762Z,15.50
2024-03-01T13:29:17.310Z,15.42
2024-03-01T13:31:44.890Z,15.33
2024-03-01T13:34:12.585Z,15.24
2024-03-01T13:36:40.196Z,15.15
2024-03-01T13:39:07.860Z,15.05
2024-03-01T13:41:35.423Z,14.96
2024-03-01T13:44:02.975Z,14.86
2024-03-01T13:46:30.552Z,14.76
2024-03-01T13:48:58.200Z,14.69
2024-03-01T13:51:25.857Z,14.61
2024-03-01T13:53:53.518Z,14.54
2024-03-01T13:56:20.972Z,14.49
2024-03-01T13:58:48.889Z,14.42
2024-03-01T14:01:16.661Z,14.35
2024-03-01T14:03:44.464Z,14.28
2024-03-01T14:06:12.132Z,14.22
2024-03-01T14:08:39.789Z,14.14
2024-03-01T14:11:07.345Z,14.06
2024-03-01T14:13:35.079Z,13.98
2024-03-01T14:16:02.939Z,13.92
2024-03-01T14:18:30.653Z,13.86
2024-03-01T14:20:58.625Z,13.81
2024-03-01T14:23:26.170Z,13.78
2024-03-01T14:25:54.002Z,13.73
2024-03-01T14:28:21.617Z,13.68
2024-03-01T14:30:49.438Z,13.63
2024-03-01T14:33:17.389Z,13.58
2024-03-01T14:35:44.997Z,13.52
2024-03-01T14:38:12.693Z,13.46
2024-03-01T14:40:40.779Z,13.41
2024-03-01T14:43:08.732Z,13.38
2024-03-01T14:45:36.461Z,13.34
2024-03-01T14:48:03.995Z,13.31
2024-03-01T14:50:31.787Z,13.29
2024-03-01T14:52:59.366Z,13.25
2024-03-01T14:55:27.113Z,13.21
2024-03-01T14:57:54.706Z,13.16
2024-03-01T15:00:22.429Z,13.11
2024-03-01T15:02:49.991Z,13.04
2024-03-01T15:05:18.074Z,12.98
2024-03-01T15:07:45.766Z,12.91
2024-03-01T15:10:13.407Z,12.87
2024-03-01T15:12:41.143Z,12.82
2024-03-01T15:15:08.698Z,12.74
2024-03-01T15:17:36.301Z,12.66
2024-03-01T15:20:04.024Z,12.58
2024-03-01T15:22:31.713Z,12.50
2024-03-01T15:24:59.356Z,12.42
2024-03-01T15:27:27.207Z,12.34
2024-03-01T15:29:54.987Z,12.26
2024-03-01T15:32:22.532Z,12.20
2024-03-01T15:34:50.231Z,12.13
2024-03-01T15:37:17.876Z,12.09
2024-03-01T15:39:45.617Z,12.05
2024-03-01T15:42:13.277Z,12.02
2024-03-01T15:44:40.855Z,11.99
2024-03-01T15:47:08.808Z,11.95
2024-03-01T15:49:36.399Z,11.93
2024-03-01T15:52:04.056Z,11.92
2024-03-01T15:54:31.797Z,11.90
2024-03-01T15:56:59.451Z,11.90
2024-03-01T15:59:27.122Z,11.89
2024-03-01T16:01:54.849Z,11.86
2024-03-01T16:04:22.545Z,11.83
2024-03-01T16:06:50.401Z,11.79
2024-03-01T16:09:17.963Z,11.76
2024-03-01T16:11:45.669Z,11.72
2024-03-01T16:14:13.364Z,11.70
2024-03-01T16:16:41.223Z,11.67
2024-03-01T16:19:09.086Z,11.63
2024-03-01T16:21:36.884Z,11.58
2024-03-01T16:24:04.443Z,11.53
2024-03-01T16:26:32.041Z,11.48
2024-03-01T16:28:59.564Z,11.44
2024-03-01T16:31:27.129Z,11.40
2024-03-01T16:33:54.682Z,11.36
2024-03-01T16:36:22.229Z,11.33
2024-03-01T16:38:50.230Z,11.28
2024-03-01T16:41:17.969Z,11.24
2024-03-01T16:43:45.622Z,11.21
2024-03-01T16:46:13.300Z,11.19
2024-03-01T16:48:40.953Z,11.17
2024-03-01T16:51:08.610Z,11.16
2024-03-01T16:53:36.174Z,11.14
2024-03-01T16:56:03.929Z,11.11
2024-03-01T16:58:31.638Z,11.08
2024-03-01T17:00:59.324Z,11.05
2024-03-01T17:03:27.017Z,11.02
2024-03-01T17:05:54.596Z,10.96
2024-03-01T17:08:22.139Z,10.91
2024-03-01T17:10:49.919Z,10.83
2024-03-01T17:13:17.577Z,10.79
2024-03-01T17:15:45.229Z,10.75
2024-03-01T17:18:12.839Z,10.72
2024-03-01T17:20:40.642Z,10.69
2024-03-01T17:23:08.425Z,10.65
2024-03-01T17:25:36.030Z,10.63
2024-03-01T17:28:03.547Z,10.60
2024-03-01T17:30:31.495Z,10.57
2024-03-01T17:32:59.091Z,10.55
2024-03-01T17:35:26.628Z,10.52
2024-03-01T17:37:54.169Z,10.48
2024-03-01T17:40:21.776Z,10.45
2024-03-01T17:42:49.400Z,10.43
2024-03-01T17:45:17.165Z,10.42
2024-03-01T17:47:44.742Z,10.40
2024-03-01T17:50:12.394Z,10.37
2024-03-01T17:52:40.304Z,10.33
2024-03-01T17:55:08.129Z,10.29
2024-03-01T17:57:35.878Z,10.26
2024-03-01T18:00:03.445Z,10.24
2024-03-01T18:02:31.102Z,10.23
2024-03-01T18:04:58.656Z,10.22
2024-03-01T18:07:26.372Z,10.22
2024-03-01T18:09:53.977Z,10.21
2024-03-01T18:12:21.954Z,10.20
2024-03-01T18:14:49.605Z,10.19
2024-03-01T18:17:17.281Z,10.16
2024-03-01T18:19:44.901Z,10.13
2024-03-01T18:22:12.713Z,10.09
2024-03-01T18:24:40.253Z,10.04
2024-03-01T18:27:08.012Z,9.99
2024-03-01T18:29:35.586Z,9.95
2024-03-01T18:32:03.240Z,9.93
2024-03-01T18:34:31.197Z,9.92
2024-03-01T18:36:58.966Z,9.89
2024-03-01T18:39:26.638Z,9.86
2024-03-01T18:41:54.195Z,9.84
2024-03-01T18:44:21.764Z,9.83
2024-03-01T18:46:49.504Z,9.82
2024-03-01T18:49:17.212Z,9.81
2024-03-01T18:51:44.847Z,9.81
2024-03-01T18:54:12.762Z,9.82
2024-03-01T18:56:40.477Z,9.83
2024-03-01T18:59:08.028Z,9.84
2024-03-01T19:01:35.833Z,9.84
2024-03-01T19:04:03.711Z,9.84
2024-03-01T19:06:31.748Z,9.84
2024-03-01T19:08:59.291Z,9.84
2024-03-01T19:11:26.893Z,9.86
2024-03-01T19:13:54.507Z,9.86
2024-03-01T19:16:22.505Z,9.84
2024-03-01T19:18:50.136Z,9.82
2024-03-01T19:21:18.047Z,9.81
2024-03-01T19:23:45.761Z,9.82
2024-03-01T19:26:13.435Z,9.83
2024-03-01T19:28:41.122Z,9.84
2024-03-01T19:31:08.666Z,9.84
2024-03-01T19:33:36.406Z,9.83
2024-03-01T19:36:04.042Z,9.84
2024-03-01T19:38:31.838Z,9.84
2024-03-01T19:40:59.397Z,9.83
2024-03-01T19:43:26.969Z,9.83
2024-03-01T19:45:54.612Z,9.83
2024-03-01T19:48:22.345Z,9.83
2024-03-01T19:50:50.137Z,9.83
2024-03-01T19:53:18.029Z,9.81
2024-03-01T19:55:45.725Z,9.79
2024-03-01T19:58:13.353Z,9.76
2024-03-01T20:00:41.051Z,9.75
2024-03-01T20:03:08.754Z,9.74
2024-03-01T20:05:36.412Z,9.70
2024-03-01T20:08:03.990Z,9.68
2024-03-01T20:10:31.683Z,9.67
2024-03-01T20:12:59.296Z,9.67
2024-03-01T20:15:26.973Z,9.67
2024-03-01T20:17:54.661Z,9.66
2024-03-01T20:20:22.384Z,9.67
2024-03-01T20:22:50.041Z,9.68
2024-03-01T20:25:17.925Z,9.70
2024-03-01T20:27:45.571Z,9.72
2024-03-01T20:30:13.352Z,9.73
2024-03-01T20:32:40.942Z,9.76
2024-03-01T20:35:08.569Z,9.76
2024-03-01T20:37:36.144Z,9.77
2024-03-01T20:40:03.804Z,9.78
2024-03-01T20:42:31.745Z,9.78
2024-03-01T20:44:59.725Z,9.77
2024-03-01T20:47:27.426Z,9.78
2024-03-01T20:49:55.039Z,9.78
2024-03-01T20:52:22.763Z,9.80
2024-03-01T20:54:50.477Z,9.82
2024-03-01T20:57:18.129Z,9.84
2024-03-01T20:59:45.690Z,9.85
2024-03-01T21:02:13.390Z,9.85
2024-03-01T21:04:41.384Z,9.86
2024-03-01T21:07:09.228Z,9.86
2024-03-01T21:09:36.837Z,9.86
2024-03-01T21:12:04.391Z,9.86
2024-03-01T21:14:31.959Z,9.85
2024-03-01T21:16:59.625Z,9.85
2024-03-01T21:19:27.233Z,9.85
2024-03-01T21:24:25.569Z,9.82
2024-03-01T21:26:53.537Z,9.82
2024-03-01T21:29:21.099Z,9.82
2024-03-01T21:31:48.761Z,9.82
2024-03-01T21:34:16.323Z,9.81
2024-03-01T21:36:44.017Z,9.81
2024-03-01T21:39:11.702Z,9.81
2024-03-01T21:41:39.303Z,9.80
2024-03-01T21:44:06.862Z,9.79
2024-03-01T21:46:34.934Z,9.78
2024-03-01T21:49:02.497Z,9.78
2024-03-01T21:51:30.402Z,9.77
2024-03-01T21:53:57.931Z,9.78
2024-03-01T21:56:25.584Z,9.77
2024-03-01T21:58:53.157Z,9.76
2024-03-01T22:01:20.829Z,9.76
2024-03-01T22:03:48.521Z,9.76
2024-03-01T22:06:16.461Z,9.76
2024-03-01T22:08:44.196Z,9.75
2024-03-01T22:11:11.764Z,9.73
2024-03-01T22:13:39.308Z,9.74
2024-03-01T22:16:06.874Z,9.73
2024-03-01T22:18:34.583Z,9.73
2024-03-01T22:21:02.291Z,9.72
2024-03-01T22:23:29.955Z,9.72
2024-03-01T22:25:57.610Z,9.72
2024-03-01T22:28:25.174Z,9.71
2024-03-01T22:30:52.941Z,9.68
2024-03-01T22:33:20.678Z,9.67
2024-03-01T22:35:48.590Z,9.66
2024-03-01T22:38:16.231Z,9.65
2024-03-01T22:40:43.792Z,9.65
2024-03-01T22:43:11.345Z,9.63
2024-03-01T22:45:38.952Z,9.62
2024-03-01T22:48:07.311Z,9.62
2024-03-01T22:50:35.869Z,9.61
2024-03-01T22:53:03.432Z,9.60
2024-03-01T22:55:31.096Z,9.60
2024-03-01T22:57:58.682Z,9.60
2024-03-01T23:00:26.328Z,9.59
2024-03-01T23:02:53.864Z,9.59
2024-03-01T23:05:21.424Z,9.59
2024-03-01T23:07:49.087Z,9.58
2024-03-01T23:10:16.954Z,9.58
2024-03-01T23:12:44.578Z,9.58
2024-03-01T23:15:12.297Z,9.59
2024-03-01T23:17:39.881Z,9.60
2024-03-01T23:20:07.501Z,9.60
2024-03-01T23:22:35.051Z,9.60
2024-03-01T23:25:02.702Z,9.61
2024-03-01T23:27:30.407Z,9.61
2024-03-01T23:29:58.034Z,9.61
2024-03-01T23:32:26.020Z,9.60
2024-03-01T23:34:53.679Z,9.60
2024-03-01T23:37:21.326Z,9.58
2024-03-01T23:39:49.097Z,9.57
2024-03-01T23:42:16.872Z,9.56
2024-03-01T23:44:44.432Z,9.54
2024-03-01T23:47:12.077Z,9.52
2024-03-01T23:49:39.633Z,9.49
2024-03-01T23:52:07.504Z,9.49
2024-03-01T23:54:35.085Z,9.48
2024-03-01T23:57:02.831Z,9.49
2024-03-01T23:59:30.385Z,9.49
